<?xml version="1.0" encoding="UTF-8" standalone="no" ?>
<gpx xmlns="http://www.topografix.com/GPX/1/1" xmlns:xsi="http://www.w3.org/2001/XMLSchema-instance" xsi:schemaLocation="http://www.topografix.com/GPX/1/1 http://www.topografix.com/GPX/1/1/gpx.xsd" version="1.1" creator="VisuGPX - https://www.visugpx.com">
  <metadata>
    <name>marche parcours 2  2024</name>
  </metadata>
  <trk>
    <name><![CDATA[marche parcours 2  2024]]></name>
    <trkseg>
      <trkpt lat="50.5637" lon="1.87929">
        <ele>116.26</ele>
        <time>2024-02-08T17:13:42.000Z</time>
      </trkpt>
      <trkpt lat="50.56355" lon="1.87927">
        <ele>116.7</ele>
        <time>2024-02-08T17:13:42.020Z</time>
      </trkpt>
      <trkpt lat="50.56272" lon="1.8791">
        <ele>116.28</ele>
        <time>2024-02-08T17:13:42.151Z</time>
      </trkpt>
      <trkpt lat="50.56201" lon="1.87898">
        <ele>117</ele>
        <time>2024-02-08T17:13:42.378Z</time>
      </trkpt>
      <trkpt lat="50.5614" lon="1.87887">
        <ele>118.4</ele>
        <time>2024-02-08T17:13:42.687Z</time>
      </trkpt>
      <trkpt lat="50.5614" lon="1.87887">
        <ele>119.36</ele>
        <time>2024-02-08T17:13:42.996Z</time>
      </trkpt>
      <trkpt lat="50.56048" lon="1.87878">
        <ele>120.85</ele>
        <time>2024-02-08T17:13:43.428Z</time>
      </trkpt>
      <trkpt lat="50.55979" lon="1.87875">
        <ele>122.14</ele>
        <time>2024-02-08T17:13:43.952Z</time>
      </trkpt>
      <trkpt lat="50.55953" lon="1.87882">
        <ele>123.46</ele>
        <time>2024-02-08T17:13:44.511Z</time>
      </trkpt>
      <trkpt lat="50.55846" lon="1.87955">
        <ele>124.77</ele>
        <time>2024-02-08T17:13:45.226Z</time>
      </trkpt>
      <trkpt lat="50.55826" lon="1.87965">
        <ele>126.92</ele>
        <time>2024-02-08T17:13:45.969Z</time>
      </trkpt>
      <trkpt lat="50.55811" lon="1.87968">
        <ele>129.61</ele>
        <time>2024-02-08T17:13:46.733Z</time>
      </trkpt>
      <trkpt lat="50.55684" lon="1.87933">
        <ele>133.83</ele>
        <time>2024-02-08T17:13:47.668Z</time>
      </trkpt>
      <trkpt lat="50.55625" lon="1.87921">
        <ele>137.96</ele>
        <time>2024-02-08T17:13:48.683Z</time>
      </trkpt>
      <trkpt lat="50.55586" lon="1.87919">
        <ele>142.07</ele>
        <time>2024-02-08T17:13:49.749Z</time>
      </trkpt>
      <trkpt lat="50.55523" lon="1.87926">
        <ele>146.36</ele>
        <time>2024-02-08T17:13:50.900Z</time>
      </trkpt>
      <trkpt lat="50.55472" lon="1.87921">
        <ele>150.22</ele>
        <time>2024-02-08T17:13:52.120Z</time>
      </trkpt>
      <trkpt lat="50.55432" lon="1.87902">
        <ele>153.74</ele>
        <time>2024-02-08T17:13:53.395Z</time>
      </trkpt>
      <trkpt lat="50.55385" lon="1.87888">
        <ele>156.63</ele>
        <time>2024-02-08T17:13:54.734Z</time>
      </trkpt>
      <trkpt lat="50.55334" lon="1.87877">
        <ele>159</ele>
        <time>2024-02-08T17:13:56.141Z</time>
      </trkpt>
      <trkpt lat="50.55312" lon="1.87875">
        <ele>160.41</ele>
        <time>2024-02-08T17:13:57.578Z</time>
      </trkpt>
      <trkpt lat="50.55273" lon="1.87879">
        <ele>161.33</ele>
        <time>2024-02-08T17:13:59.067Z</time>
      </trkpt>
      <trkpt lat="50.55209" lon="1.87874">
        <ele>161.64</ele>
        <time>2024-02-08T17:14:00.642Z</time>
      </trkpt>
      <trkpt lat="50.55205" lon="1.87765">
        <ele>163.19</ele>
        <time>2024-02-08T17:14:02.310Z</time>
      </trkpt>
      <trkpt lat="50.55205" lon="1.87765">
        <ele>163.19</ele>
        <time>2024-02-08T17:14:03.978Z</time>
      </trkpt>
      <trkpt lat="50.55204" lon="1.8776">
        <ele>161.99</ele>
        <time>2024-02-08T17:14:05.651Z</time>
      </trkpt>
      <trkpt lat="50.55232" lon="1.87638">
        <ele>162.58</ele>
        <time>2024-02-08T17:14:07.434Z</time>
      </trkpt>
      <trkpt lat="50.55273" lon="1.87499">
        <ele>161.65</ele>
        <time>2024-02-08T17:14:09.347Z</time>
      </trkpt>
      <trkpt lat="50.55306" lon="1.87375">
        <ele>160.01</ele>
        <time>2024-02-08T17:14:11.375Z</time>
      </trkpt>
      <trkpt lat="50.55337" lon="1.8725">
        <ele>157.03</ele>
        <time>2024-02-08T17:14:13.517Z</time>
      </trkpt>
      <trkpt lat="50.55337" lon="1.8725">
        <ele>157.03</ele>
        <time>2024-02-08T17:14:15.659Z</time>
      </trkpt>
      <trkpt lat="50.55382" lon="1.87066">
        <ele>157.33</ele>
        <time>2024-02-08T17:14:17.969Z</time>
      </trkpt>
      <trkpt lat="50.55382" lon="1.87066">
        <ele>156.33</ele>
        <time>2024-02-08T17:14:20.279Z</time>
      </trkpt>
      <trkpt lat="50.55423" lon="1.86892">
        <ele>155.9</ele>
        <time>2024-02-08T17:14:22.746Z</time>
      </trkpt>
      <trkpt lat="50.55455" lon="1.8678">
        <ele>156.06</ele>
        <time>2024-02-08T17:14:25.318Z</time>
      </trkpt>
      <trkpt lat="50.55493" lon="1.8664">
        <ele>155.31</ele>
        <time>2024-02-08T17:14:28.019Z</time>
      </trkpt>
      <trkpt lat="50.55504" lon="1.86594">
        <ele>155.31</ele>
        <time>2024-02-08T17:14:30.762Z</time>
      </trkpt>
      <trkpt lat="50.55473" lon="1.86571">
        <ele>156.26</ele>
        <time>2024-02-08T17:14:33.551Z</time>
      </trkpt>
      <trkpt lat="50.55473" lon="1.86571">
        <ele>156.27</ele>
        <time>2024-02-08T17:14:36.340Z</time>
      </trkpt>
      <trkpt lat="50.55454" lon="1.86557">
        <ele>157.31</ele>
        <time>2024-02-08T17:14:39.156Z</time>
      </trkpt>
      <trkpt lat="50.55392" lon="1.86647">
        <ele>157.03</ele>
        <time>2024-02-08T17:14:42.085Z</time>
      </trkpt>
      <trkpt lat="50.55313" lon="1.86689">
        <ele>155.61</ele>
        <time>2024-02-08T17:14:45.126Z</time>
      </trkpt>
      <trkpt lat="50.55231" lon="1.86728">
        <ele>154.96</ele>
        <time>2024-02-08T17:14:48.280Z</time>
      </trkpt>
      <trkpt lat="50.55098" lon="1.86813">
        <ele>155.93</ele>
        <time>2024-02-08T17:14:51.626Z</time>
      </trkpt>
      <trkpt lat="50.55005" lon="1.86882">
        <ele>155.95</ele>
        <time>2024-02-08T17:14:55.110Z</time>
      </trkpt>
      <trkpt lat="50.54946" lon="1.86921">
        <ele>155.49</ele>
        <time>2024-02-08T17:14:58.679Z</time>
      </trkpt>
      <trkpt lat="50.54813" lon="1.87022">
        <ele>157.33</ele>
        <time>2024-02-08T17:15:02.446Z</time>
      </trkpt>
      <trkpt lat="50.5478" lon="1.87044">
        <ele>158.19</ele>
        <time>2024-02-08T17:15:06.261Z</time>
      </trkpt>
      <trkpt lat="50.54777" lon="1.86956">
        <ele>157.98</ele>
        <time>2024-02-08T17:15:10.151Z</time>
      </trkpt>
      <trkpt lat="50.54777" lon="1.86956">
        <ele>157.98</ele>
        <time>2024-02-08T17:15:14.041Z</time>
      </trkpt>
      <trkpt lat="50.54775" lon="1.86915">
        <ele>157.07</ele>
        <time>2024-02-08T17:15:17.967Z</time>
      </trkpt>
      <trkpt lat="50.54771" lon="1.8683">
        <ele>156.54</ele>
        <time>2024-02-08T17:15:21.965Z</time>
      </trkpt>
      <trkpt lat="50.54769" lon="1.86729">
        <ele>155.93</ele>
        <time>2024-02-08T17:15:26.049Z</time>
      </trkpt>
      <trkpt lat="50.54747" lon="1.86555">
        <ele>154.11</ele>
        <time>2024-02-08T17:15:30.284Z</time>
      </trkpt>
      <trkpt lat="50.54738" lon="1.86483">
        <ele>153.1</ele>
        <time>2024-02-08T17:15:34.581Z</time>
      </trkpt>
      <trkpt lat="50.54736" lon="1.86444">
        <ele>152.25</ele>
        <time>2024-02-08T17:15:38.912Z</time>
      </trkpt>
      <trkpt lat="50.54747" lon="1.86268">
        <ele>150.53</ele>
        <time>2024-02-08T17:15:43.393Z</time>
      </trkpt>
      <trkpt lat="50.54739" lon="1.86211">
        <ele>149.13</ele>
        <time>2024-02-08T17:15:47.924Z</time>
      </trkpt>
      <trkpt lat="50.54642" lon="1.86005">
        <ele>147.05</ele>
        <time>2024-02-08T17:15:52.673Z</time>
      </trkpt>
      <trkpt lat="50.54607" lon="1.85938">
        <ele>145.32</ele>
        <time>2024-02-08T17:15:57.495Z</time>
      </trkpt>
      <trkpt lat="50.54494" lon="1.85709">
        <ele>143.08</ele>
        <time>2024-02-08T17:16:02.564Z</time>
      </trkpt>
      <trkpt lat="50.54467" lon="1.85631">
        <ele>141.66</ele>
        <time>2024-02-08T17:16:07.708Z</time>
      </trkpt>
      <trkpt lat="50.54447" lon="1.85551">
        <ele>140.03</ele>
        <time>2024-02-08T17:16:12.925Z</time>
      </trkpt>
      <trkpt lat="50.54408" lon="1.85465">
        <ele>138.43</ele>
        <time>2024-02-08T17:16:18.232Z</time>
      </trkpt>
      <trkpt lat="50.54377" lon="1.85378">
        <ele>137.78</ele>
        <time>2024-02-08T17:16:23.624Z</time>
      </trkpt>
      <trkpt lat="50.54331" lon="1.85257">
        <ele>137.54</ele>
        <time>2024-02-08T17:16:29.136Z</time>
      </trkpt>
      <trkpt lat="50.5429" lon="1.85186">
        <ele>138.31</ele>
        <time>2024-02-08T17:16:34.729Z</time>
      </trkpt>
      <trkpt lat="50.54251" lon="1.85132">
        <ele>137.81</ele>
        <time>2024-02-08T17:16:40.392Z</time>
      </trkpt>
      <trkpt lat="50.54251" lon="1.85132">
        <ele>137.81</ele>
        <time>2024-02-08T17:16:46.055Z</time>
      </trkpt>
      <trkpt lat="50.54238" lon="1.85113">
        <ele>137.68</ele>
        <time>2024-02-08T17:16:51.742Z</time>
      </trkpt>
      <trkpt lat="50.54216" lon="1.85082">
        <ele>137.15</ele>
        <time>2024-02-08T17:16:57.468Z</time>
      </trkpt>
      <trkpt lat="50.54202" lon="1.85067">
        <ele>136.54</ele>
        <time>2024-02-08T17:17:03.216Z</time>
      </trkpt>
      <trkpt lat="50.54251" lon="1.84915">
        <ele>134.57</ele>
        <time>2024-02-08T17:17:09.109Z</time>
      </trkpt>
      <trkpt lat="50.54271" lon="1.84866">
        <ele>132.76</ele>
        <time>2024-02-08T17:17:15.051Z</time>
      </trkpt>
      <trkpt lat="50.54287" lon="1.84841">
        <ele>131.15</ele>
        <time>2024-02-08T17:17:21.024Z</time>
      </trkpt>
      <trkpt lat="50.54267" lon="1.84802">
        <ele>130.39</ele>
        <time>2024-02-08T17:17:27.040Z</time>
      </trkpt>
      <trkpt lat="50.54267" lon="1.84802">
        <ele>129.48</ele>
        <time>2024-02-08T17:17:33.056Z</time>
      </trkpt>
      <trkpt lat="50.54265" lon="1.84781">
        <ele>128.49</ele>
        <time>2024-02-08T17:17:39.090Z</time>
      </trkpt>
      <trkpt lat="50.54266" lon="1.84768">
        <ele>127.37</ele>
        <time>2024-02-08T17:17:45.135Z</time>
      </trkpt>
      <trkpt lat="50.54275" lon="1.84712">
        <ele>125.83</ele>
        <time>2024-02-08T17:17:51.229Z</time>
      </trkpt>
      <trkpt lat="50.54283" lon="1.84667">
        <ele>124.53</ele>
        <time>2024-02-08T17:17:57.363Z</time>
      </trkpt>
      <trkpt lat="50.54284" lon="1.84576">
        <ele>123.01</ele>
        <time>2024-02-08T17:18:03.574Z</time>
      </trkpt>
      <trkpt lat="50.54276" lon="1.84503">
        <ele>121.33</ele>
        <time>2024-02-08T17:18:09.849Z</time>
      </trkpt>
      <trkpt lat="50.54276" lon="1.84503">
        <ele>121.33</ele>
        <time>2024-02-08T17:18:16.124Z</time>
      </trkpt>
      <trkpt lat="50.54283" lon="1.84502">
        <ele>114.47</ele>
        <time>2024-02-08T17:18:22.409Z</time>
      </trkpt>
      <trkpt lat="50.5428" lon="1.84468">
        <ele>112.54</ele>
        <time>2024-02-08T17:18:28.723Z</time>
      </trkpt>
      <trkpt lat="50.54274" lon="1.84446">
        <ele>110.92</ele>
        <time>2024-02-08T17:18:35.057Z</time>
      </trkpt>
      <trkpt lat="50.54266" lon="1.84421">
        <ele>109.4</ele>
        <time>2024-02-08T17:18:41.415Z</time>
      </trkpt>
      <trkpt lat="50.54267" lon="1.84414">
        <ele>107.93</ele>
        <time>2024-02-08T17:18:47.779Z</time>
      </trkpt>
      <trkpt lat="50.54267" lon="1.8441">
        <ele>106.69</ele>
        <time>2024-02-08T17:18:54.147Z</time>
      </trkpt>
      <trkpt lat="50.54267" lon="1.84392">
        <ele>105.33</ele>
        <time>2024-02-08T17:19:00.530Z</time>
      </trkpt>
      <trkpt lat="50.54267" lon="1.84371">
        <ele>104.13</ele>
        <time>2024-02-08T17:19:06.931Z</time>
      </trkpt>
      <trkpt lat="50.54269" lon="1.84362">
        <ele>103.2</ele>
        <time>2024-02-08T17:19:13.340Z</time>
      </trkpt>
      <trkpt lat="50.54277" lon="1.84354">
        <ele>102.46</ele>
        <time>2024-02-08T17:19:19.762Z</time>
      </trkpt>
      <trkpt lat="50.54286" lon="1.84347">
        <ele>102.2</ele>
        <time>2024-02-08T17:19:26.197Z</time>
      </trkpt>
      <trkpt lat="50.54296" lon="1.84342">
        <ele>102.37</ele>
        <time>2024-02-08T17:19:32.646Z</time>
      </trkpt>
      <trkpt lat="50.54301" lon="1.84345">
        <ele>102.81</ele>
        <time>2024-02-08T17:19:39.102Z</time>
      </trkpt>
      <trkpt lat="50.54321" lon="1.84369">
        <ele>103.75</ele>
        <time>2024-02-08T17:19:45.592Z</time>
      </trkpt>
      <trkpt lat="50.54337" lon="1.84388">
        <ele>104.96</ele>
        <time>2024-02-08T17:19:52.108Z</time>
      </trkpt>
      <trkpt lat="50.54344" lon="1.84378">
        <ele>106.55</ele>
        <time>2024-02-08T17:19:58.637Z</time>
      </trkpt>
      <trkpt lat="50.54346" lon="1.84368">
        <ele>108.12</ele>
        <time>2024-02-08T17:20:05.175Z</time>
      </trkpt>
      <trkpt lat="50.54346" lon="1.84353">
        <ele>109.76</ele>
        <time>2024-02-08T17:20:11.726Z</time>
      </trkpt>
      <trkpt lat="50.54341" lon="1.8432">
        <ele>111.24</ele>
        <time>2024-02-08T17:20:18.306Z</time>
      </trkpt>
      <trkpt lat="50.54341" lon="1.8432">
        <ele>111.25</ele>
        <time>2024-02-08T17:20:24.886Z</time>
      </trkpt>
      <trkpt lat="50.54329" lon="1.84233">
        <ele>123.1</ele>
        <time>2024-02-08T17:20:31.541Z</time>
      </trkpt>
      <trkpt lat="50.54318" lon="1.84152">
        <ele>125.59</ele>
        <time>2024-02-08T17:20:38.267Z</time>
      </trkpt>
      <trkpt lat="50.54307" lon="1.83963">
        <ele>126.78</ele>
        <time>2024-02-08T17:20:45.154Z</time>
      </trkpt>
      <trkpt lat="50.54304" lon="1.8382">
        <ele>127.28</ele>
        <time>2024-02-08T17:20:52.163Z</time>
      </trkpt>
      <trkpt lat="50.54309" lon="1.83714">
        <ele>127.15</ele>
        <time>2024-02-08T17:20:59.262Z</time>
      </trkpt>
      <trkpt lat="50.54314" lon="1.83653">
        <ele>126.15</ele>
        <time>2024-02-08T17:21:06.414Z</time>
      </trkpt>
      <trkpt lat="50.54319" lon="1.83614">
        <ele>124.6</ele>
        <time>2024-02-08T17:21:13.600Z</time>
      </trkpt>
      <trkpt lat="50.5433" lon="1.83527">
        <ele>122.43</ele>
        <time>2024-02-08T17:21:20.861Z</time>
      </trkpt>
      <trkpt lat="50.54342" lon="1.83454">
        <ele>120.86</ele>
        <time>2024-02-08T17:21:28.186Z</time>
      </trkpt>
      <trkpt lat="50.54347" lon="1.8343">
        <ele>119.9</ele>
        <time>2024-02-08T17:21:35.533Z</time>
      </trkpt>
      <trkpt lat="50.54357" lon="1.83395">
        <ele>119.42</ele>
        <time>2024-02-08T17:21:42.912Z</time>
      </trkpt>
      <trkpt lat="50.54359" lon="1.83385">
        <ele>119.05</ele>
        <time>2024-02-08T17:21:50.300Z</time>
      </trkpt>
      <trkpt lat="50.54359" lon="1.83385">
        <ele>119.05</ele>
        <time>2024-02-08T17:21:57.688Z</time>
      </trkpt>
      <trkpt lat="50.54373" lon="1.83338">
        <ele>120.48</ele>
        <time>2024-02-08T17:22:05.120Z</time>
      </trkpt>
      <trkpt lat="50.54393" lon="1.83225">
        <ele>120.27</ele>
        <time>2024-02-08T17:22:12.652Z</time>
      </trkpt>
      <trkpt lat="50.54399" lon="1.83198">
        <ele>119.09</ele>
        <time>2024-02-08T17:22:20.208Z</time>
      </trkpt>
      <trkpt lat="50.54408" lon="1.83174">
        <ele>117.31</ele>
        <time>2024-02-08T17:22:27.788Z</time>
      </trkpt>
      <trkpt lat="50.54418" lon="1.8315">
        <ele>115.44</ele>
        <time>2024-02-08T17:22:35.393Z</time>
      </trkpt>
      <trkpt lat="50.54424" lon="1.83138">
        <ele>113.97</ele>
        <time>2024-02-08T17:22:43.010Z</time>
      </trkpt>
      <trkpt lat="50.54431" lon="1.83131">
        <ele>112.72</ele>
        <time>2024-02-08T17:22:50.639Z</time>
      </trkpt>
      <trkpt lat="50.54438" lon="1.8315">
        <ele>111.89</ele>
        <time>2024-02-08T17:22:58.286Z</time>
      </trkpt>
      <trkpt lat="50.54451" lon="1.83182">
        <ele>111.36</ele>
        <time>2024-02-08T17:23:05.966Z</time>
      </trkpt>
      <trkpt lat="50.54451" lon="1.83182">
        <ele>111.36</ele>
        <time>2024-02-08T17:23:13.646Z</time>
      </trkpt>
      <trkpt lat="50.54514" lon="1.83343">
        <ele>117</ele>
        <time>2024-02-08T17:23:21.486Z</time>
      </trkpt>
      <trkpt lat="50.54532" lon="1.83392">
        <ele>118.77</ele>
        <time>2024-02-08T17:23:29.374Z</time>
      </trkpt>
      <trkpt lat="50.54551" lon="1.83429">
        <ele>119.85</ele>
        <time>2024-02-08T17:23:37.303Z</time>
      </trkpt>
      <trkpt lat="50.54569" lon="1.83459">
        <ele>120.61</ele>
        <time>2024-02-08T17:23:45.267Z</time>
      </trkpt>
      <trkpt lat="50.5459" lon="1.835">
        <ele>121.38</ele>
        <time>2024-02-08T17:23:53.276Z</time>
      </trkpt>
      <trkpt lat="50.54602" lon="1.83521">
        <ele>122.05</ele>
        <time>2024-02-08T17:24:01.309Z</time>
      </trkpt>
      <trkpt lat="50.54627" lon="1.83562">
        <ele>122.87</ele>
        <time>2024-02-08T17:24:09.390Z</time>
      </trkpt>
      <trkpt lat="50.54654" lon="1.83595">
        <ele>123.97</ele>
        <time>2024-02-08T17:24:17.517Z</time>
      </trkpt>
      <trkpt lat="50.54671" lon="1.83611">
        <ele>124.95</ele>
        <time>2024-02-08T17:24:25.670Z</time>
      </trkpt>
      <trkpt lat="50.54702" lon="1.83639">
        <ele>125.95</ele>
        <time>2024-02-08T17:24:33.871Z</time>
      </trkpt>
      <trkpt lat="50.54715" lon="1.83659">
        <ele>127.03</ele>
        <time>2024-02-08T17:24:42.096Z</time>
      </trkpt>
      <trkpt lat="50.54753" lon="1.83732">
        <ele>128.3</ele>
        <time>2024-02-08T17:24:50.401Z</time>
      </trkpt>
      <trkpt lat="50.54782" lon="1.83813">
        <ele>130.01</ele>
        <time>2024-02-08T17:24:58.785Z</time>
      </trkpt>
      <trkpt lat="50.54794" lon="1.83848">
        <ele>131.24</ele>
        <time>2024-02-08T17:25:07.203Z</time>
      </trkpt>
      <trkpt lat="50.548" lon="1.83878">
        <ele>132.56</ele>
        <time>2024-02-08T17:25:15.648Z</time>
      </trkpt>
      <trkpt lat="50.54859" lon="1.84012">
        <ele>134.29</ele>
        <time>2024-02-08T17:25:24.231Z</time>
      </trkpt>
      <trkpt lat="50.54899" lon="1.84086">
        <ele>135.94</ele>
        <time>2024-02-08T17:25:32.897Z</time>
      </trkpt>
      <trkpt lat="50.54989" lon="1.84238">
        <ele>138.33</ele>
        <time>2024-02-08T17:25:41.739Z</time>
      </trkpt>
      <trkpt lat="50.5506" lon="1.84349">
        <ele>140.65</ele>
        <time>2024-02-08T17:25:50.715Z</time>
      </trkpt>
      <trkpt lat="50.55092" lon="1.84395">
        <ele>142.02</ele>
        <time>2024-02-08T17:25:59.749Z</time>
      </trkpt>
      <trkpt lat="50.55115" lon="1.84432">
        <ele>143.52</ele>
        <time>2024-02-08T17:26:08.827Z</time>
      </trkpt>
      <trkpt lat="50.55127" lon="1.84442">
        <ele>144.79</ele>
        <time>2024-02-08T17:26:17.923Z</time>
      </trkpt>
      <trkpt lat="50.55152" lon="1.84453">
        <ele>145.94</ele>
        <time>2024-02-08T17:26:27.054Z</time>
      </trkpt>
      <trkpt lat="50.55173" lon="1.84453">
        <ele>146.71</ele>
        <time>2024-02-08T17:26:36.213Z</time>
      </trkpt>
      <trkpt lat="50.55185" lon="1.8445">
        <ele>146.98</ele>
        <time>2024-02-08T17:26:45.388Z</time>
      </trkpt>
      <trkpt lat="50.55197" lon="1.84445">
        <ele>146.99</ele>
        <time>2024-02-08T17:26:54.580Z</time>
      </trkpt>
      <trkpt lat="50.55218" lon="1.84426">
        <ele>146.7</ele>
        <time>2024-02-08T17:27:03.804Z</time>
      </trkpt>
      <trkpt lat="50.55247" lon="1.84394">
        <ele>145.93</ele>
        <time>2024-02-08T17:27:13.075Z</time>
      </trkpt>
      <trkpt lat="50.55287" lon="1.84356">
        <ele>144.78</ele>
        <time>2024-02-08T17:27:22.409Z</time>
      </trkpt>
      <trkpt lat="50.55312" lon="1.84335">
        <ele>144.18</ele>
        <time>2024-02-08T17:27:31.781Z</time>
      </trkpt>
      <trkpt lat="50.55363" lon="1.84289">
        <ele>143.93</ele>
        <time>2024-02-08T17:27:41.231Z</time>
      </trkpt>
      <trkpt lat="50.55389" lon="1.84274">
        <ele>143.71</ele>
        <time>2024-02-08T17:27:50.718Z</time>
      </trkpt>
      <trkpt lat="50.55406" lon="1.84262">
        <ele>143.46</ele>
        <time>2024-02-08T17:28:00.230Z</time>
      </trkpt>
      <trkpt lat="50.55417" lon="1.84252">
        <ele>143.31</ele>
        <time>2024-02-08T17:28:09.759Z</time>
      </trkpt>
      <trkpt lat="50.55439" lon="1.84223">
        <ele>143.29</ele>
        <time>2024-02-08T17:28:19.326Z</time>
      </trkpt>
      <trkpt lat="50.55506" lon="1.84138">
        <ele>143.58</ele>
        <time>2024-02-08T17:28:29.008Z</time>
      </trkpt>
      <trkpt lat="50.55538" lon="1.84109">
        <ele>143.7</ele>
        <time>2024-02-08T17:28:38.740Z</time>
      </trkpt>
      <trkpt lat="50.55552" lon="1.84095">
        <ele>143.69</ele>
        <time>2024-02-08T17:28:48.494Z</time>
      </trkpt>
      <trkpt lat="50.55549" lon="1.84124">
        <ele>143.55</ele>
        <time>2024-02-08T17:28:58.273Z</time>
      </trkpt>
      <trkpt lat="50.55546" lon="1.84167">
        <ele>143.32</ele>
        <time>2024-02-08T17:29:08.089Z</time>
      </trkpt>
      <trkpt lat="50.55543" lon="1.84214">
        <ele>143.2</ele>
        <time>2024-02-08T17:29:17.945Z</time>
      </trkpt>
      <trkpt lat="50.55543" lon="1.84225">
        <ele>143.18</ele>
        <time>2024-02-08T17:29:27.810Z</time>
      </trkpt>
      <trkpt lat="50.55543" lon="1.84225">
        <ele>143.18</ele>
        <time>2024-02-08T17:29:37.675Z</time>
      </trkpt>
      <trkpt lat="50.55535" lon="1.84393">
        <ele>142.35</ele>
        <time>2024-02-08T17:29:47.683Z</time>
      </trkpt>
      <trkpt lat="50.55535" lon="1.8445">
        <ele>142.68</ele>
        <time>2024-02-08T17:29:57.740Z</time>
      </trkpt>
      <trkpt lat="50.55536" lon="1.84591">
        <ele>143.94</ele>
        <time>2024-02-08T17:30:07.917Z</time>
      </trkpt>
      <trkpt lat="50.55531" lon="1.84726">
        <ele>145.21</ele>
        <time>2024-02-08T17:30:18.209Z</time>
      </trkpt>
      <trkpt lat="50.55524" lon="1.84849">
        <ele>146.09</ele>
        <time>2024-02-08T17:30:28.606Z</time>
      </trkpt>
      <trkpt lat="50.55518" lon="1.8493">
        <ele>147.18</ele>
        <time>2024-02-08T17:30:39.072Z</time>
      </trkpt>
      <trkpt lat="50.55513" lon="1.85033">
        <ele>148.47</ele>
        <time>2024-02-08T17:30:49.626Z</time>
      </trkpt>
      <trkpt lat="50.55503" lon="1.85204">
        <ele>149.55</ele>
        <time>2024-02-08T17:31:00.326Z</time>
      </trkpt>
      <trkpt lat="50.55489" lon="1.85411">
        <ele>149.94</ele>
        <time>2024-02-08T17:31:11.203Z</time>
      </trkpt>
      <trkpt lat="50.55488" lon="1.855">
        <ele>150.78</ele>
        <time>2024-02-08T17:31:22.156Z</time>
      </trkpt>
      <trkpt lat="50.55491" lon="1.85589">
        <ele>152.21</ele>
        <time>2024-02-08T17:31:33.184Z</time>
      </trkpt>
      <trkpt lat="50.55494" lon="1.85667">
        <ele>153.4</ele>
        <time>2024-02-08T17:31:44.279Z</time>
      </trkpt>
      <trkpt lat="50.55491" lon="1.85711">
        <ele>154.3</ele>
        <time>2024-02-08T17:31:55.412Z</time>
      </trkpt>
      <trkpt lat="50.55507" lon="1.85716">
        <ele>154.77</ele>
        <time>2024-02-08T17:32:06.566Z</time>
      </trkpt>
      <trkpt lat="50.55525" lon="1.85728">
        <ele>155.01</ele>
        <time>2024-02-08T17:32:17.746Z</time>
      </trkpt>
      <trkpt lat="50.55541" lon="1.85742">
        <ele>155.1</ele>
        <time>2024-02-08T17:32:28.951Z</time>
      </trkpt>
      <trkpt lat="50.55571" lon="1.85768">
        <ele>154.82</ele>
        <time>2024-02-08T17:32:40.202Z</time>
      </trkpt>
      <trkpt lat="50.55571" lon="1.85768">
        <ele>154.82</ele>
        <time>2024-02-08T17:32:51.453Z</time>
      </trkpt>
      <trkpt lat="50.55599" lon="1.85794">
        <ele>152.31</ele>
        <time>2024-02-08T17:33:02.747Z</time>
      </trkpt>
      <trkpt lat="50.55617" lon="1.85816">
        <ele>151.74</ele>
        <time>2024-02-08T17:33:14.072Z</time>
      </trkpt>
      <trkpt lat="50.55631" lon="1.85836">
        <ele>151.02</ele>
        <time>2024-02-08T17:33:25.422Z</time>
      </trkpt>
      <trkpt lat="50.55643" lon="1.85869">
        <ele>150.41</ele>
        <time>2024-02-08T17:33:36.804Z</time>
      </trkpt>
      <trkpt lat="50.55664" lon="1.85949">
        <ele>149.68</ele>
        <time>2024-02-08T17:33:48.260Z</time>
      </trkpt>
      <trkpt lat="50.55672" lon="1.85991">
        <ele>149.02</ele>
        <time>2024-02-08T17:33:59.753Z</time>
      </trkpt>
      <trkpt lat="50.55679" lon="1.86041">
        <ele>148.37</ele>
        <time>2024-02-08T17:34:11.289Z</time>
      </trkpt>
      <trkpt lat="50.55676" lon="1.86094">
        <ele>148.2</ele>
        <time>2024-02-08T17:34:22.871Z</time>
      </trkpt>
      <trkpt lat="50.55673" lon="1.86129">
        <ele>147.81</ele>
        <time>2024-02-08T17:34:34.483Z</time>
      </trkpt>
      <trkpt lat="50.55667" lon="1.86165">
        <ele>147.5</ele>
        <time>2024-02-08T17:34:46.126Z</time>
      </trkpt>
      <trkpt lat="50.55662" lon="1.86201">
        <ele>147.22</ele>
        <time>2024-02-08T17:34:57.801Z</time>
      </trkpt>
      <trkpt lat="50.5566" lon="1.86234">
        <ele>147.39</ele>
        <time>2024-02-08T17:35:09.504Z</time>
      </trkpt>
      <trkpt lat="50.55654" lon="1.86267">
        <ele>147.81</ele>
        <time>2024-02-08T17:35:21.236Z</time>
      </trkpt>
      <trkpt lat="50.5564" lon="1.86306">
        <ele>148.61</ele>
        <time>2024-02-08T17:35:33.006Z</time>
      </trkpt>
      <trkpt lat="50.55621" lon="1.86354">
        <ele>149.25</ele>
        <time>2024-02-08T17:35:44.824Z</time>
      </trkpt>
      <trkpt lat="50.55604" lon="1.86397">
        <ele>150.35</ele>
        <time>2024-02-08T17:35:56.685Z</time>
      </trkpt>
      <trkpt lat="50.55592" lon="1.86439">
        <ele>151.32</ele>
        <time>2024-02-08T17:36:08.585Z</time>
      </trkpt>
      <trkpt lat="50.55574" lon="1.86507">
        <ele>152.39</ele>
        <time>2024-02-08T17:36:20.548Z</time>
      </trkpt>
      <trkpt lat="50.55557" lon="1.86564">
        <ele>153.24</ele>
        <time>2024-02-08T17:36:32.565Z</time>
      </trkpt>
      <trkpt lat="50.55547" lon="1.86585">
        <ele>153.82</ele>
        <time>2024-02-08T17:36:44.604Z</time>
      </trkpt>
      <trkpt lat="50.55538" lon="1.86597">
        <ele>154.29</ele>
        <time>2024-02-08T17:36:56.659Z</time>
      </trkpt>
      <trkpt lat="50.55533" lon="1.866">
        <ele>154.7</ele>
        <time>2024-02-08T17:37:08.721Z</time>
      </trkpt>
      <trkpt lat="50.55527" lon="1.86604">
        <ele>155.05</ele>
        <time>2024-02-08T17:37:20.791Z</time>
      </trkpt>
      <trkpt lat="50.55514" lon="1.86597">
        <ele>156.31</ele>
        <time>2024-02-08T17:37:32.880Z</time>
      </trkpt>
      <trkpt lat="50.55514" lon="1.86597">
        <ele>156.32</ele>
        <time>2024-02-08T17:37:44.969Z</time>
      </trkpt>
      <trkpt lat="50.55505" lon="1.86592">
        <ele>156.96</ele>
        <time>2024-02-08T17:37:57.071Z</time>
      </trkpt>
      <trkpt lat="50.55493" lon="1.86642">
        <ele>157.75</ele>
        <time>2024-02-08T17:38:09.218Z</time>
      </trkpt>
      <trkpt lat="50.55452" lon="1.86798">
        <ele>158.83</ele>
        <time>2024-02-08T17:38:21.509Z</time>
      </trkpt>
      <trkpt lat="50.55402" lon="1.86995">
        <ele>159.68</ele>
        <time>2024-02-08T17:38:33.980Z</time>
      </trkpt>
      <trkpt lat="50.55321" lon="1.87319">
        <ele>161.07</ele>
        <time>2024-02-08T17:38:46.747Z</time>
      </trkpt>
      <trkpt lat="50.55281" lon="1.87471">
        <ele>162.57</ele>
        <time>2024-02-08T17:38:59.654Z</time>
      </trkpt>
      <trkpt lat="50.55228" lon="1.8766">
        <ele>163.72</ele>
        <time>2024-02-08T17:39:12.736Z</time>
      </trkpt>
      <trkpt lat="50.55218" lon="1.877">
        <ele>164.13</ele>
        <time>2024-02-08T17:39:25.855Z</time>
      </trkpt>
      <trkpt lat="50.55212" lon="1.87733">
        <ele>164.23</ele>
        <time>2024-02-08T17:39:39.003Z</time>
      </trkpt>
      <trkpt lat="50.55208" lon="1.87764">
        <ele>164.26</ele>
        <time>2024-02-08T17:39:52.178Z</time>
      </trkpt>
      <trkpt lat="50.55207" lon="1.87792">
        <ele>164.12</ele>
        <time>2024-02-08T17:40:05.377Z</time>
      </trkpt>
      <trkpt lat="50.55211" lon="1.87852">
        <ele>163.58</ele>
        <time>2024-02-08T17:40:18.627Z</time>
      </trkpt>
      <trkpt lat="50.55212" lon="1.87873">
        <ele>162.97</ele>
        <time>2024-02-08T17:40:31.895Z</time>
      </trkpt>
      <trkpt lat="50.55262" lon="1.87879">
        <ele>162.66</ele>
        <time>2024-02-08T17:40:45.230Z</time>
      </trkpt>
      <trkpt lat="50.55282" lon="1.87879">
        <ele>161.92</ele>
        <time>2024-02-08T17:40:58.592Z</time>
      </trkpt>
      <trkpt lat="50.55318" lon="1.87874">
        <ele>160.96</ele>
        <time>2024-02-08T17:41:12.002Z</time>
      </trkpt>
      <trkpt lat="50.55354" lon="1.87879">
        <ele>159.63</ele>
        <time>2024-02-08T17:41:25.460Z</time>
      </trkpt>
      <trkpt lat="50.55385" lon="1.87886">
        <ele>157.85</ele>
        <time>2024-02-08T17:41:38.960Z</time>
      </trkpt>
      <trkpt lat="50.55424" lon="1.87899">
        <ele>155.78</ele>
        <time>2024-02-08T17:41:52.513Z</time>
      </trkpt>
      <trkpt lat="50.55463" lon="1.87915">
        <ele>153.24</ele>
        <time>2024-02-08T17:42:06.120Z</time>
      </trkpt>
      <trkpt lat="50.55475" lon="1.8792">
        <ele>150.68</ele>
        <time>2024-02-08T17:42:19.744Z</time>
      </trkpt>
      <trkpt lat="50.55495" lon="1.87922">
        <ele>147.87</ele>
        <time>2024-02-08T17:42:33.394Z</time>
      </trkpt>
      <trkpt lat="50.55546" lon="1.87923">
        <ele>144.63</ele>
        <time>2024-02-08T17:42:47.112Z</time>
      </trkpt>
      <trkpt lat="50.55587" lon="1.87918">
        <ele>141.27</ele>
        <time>2024-02-08T17:43:00.885Z</time>
      </trkpt>
      <trkpt lat="50.55632" lon="1.8792">
        <ele>137.79</ele>
        <time>2024-02-08T17:43:14.718Z</time>
      </trkpt>
      <trkpt lat="50.55699" lon="1.87934">
        <ele>134.3</ele>
        <time>2024-02-08T17:43:28.642Z</time>
      </trkpt>
      <trkpt lat="50.55745" lon="1.87947">
        <ele>131.33</ele>
        <time>2024-02-08T17:43:42.628Z</time>
      </trkpt>
      <trkpt lat="50.55797" lon="1.87963">
        <ele>128.76</ele>
        <time>2024-02-08T17:43:56.685Z</time>
      </trkpt>
      <trkpt lat="50.55818" lon="1.87964">
        <ele>126.73</ele>
        <time>2024-02-08T17:44:10.770Z</time>
      </trkpt>
      <trkpt lat="50.55834" lon="1.8796">
        <ele>125.07</ele>
        <time>2024-02-08T17:44:24.876Z</time>
      </trkpt>
      <trkpt lat="50.55848" lon="1.87951">
        <ele>123.86</ele>
        <time>2024-02-08T17:44:39.003Z</time>
      </trkpt>
      <trkpt lat="50.55894" lon="1.87918">
        <ele>122.97</ele>
        <time>2024-02-08T17:44:53.197Z</time>
      </trkpt>
      <trkpt lat="50.55936" lon="1.8789">
        <ele>122.58</ele>
        <time>2024-02-08T17:45:07.452Z</time>
      </trkpt>
      <trkpt lat="50.55967" lon="1.87876">
        <ele>122.13</ele>
        <time>2024-02-08T17:45:21.750Z</time>
      </trkpt>
      <trkpt lat="50.5599" lon="1.87872">
        <ele>121.69</ele>
        <time>2024-02-08T17:45:36.079Z</time>
      </trkpt>
      <trkpt lat="50.56003" lon="1.87872">
        <ele>121.2</ele>
        <time>2024-02-08T17:45:50.425Z</time>
      </trkpt>
      <trkpt lat="50.56025" lon="1.87874">
        <ele>120.6</ele>
        <time>2024-02-08T17:46:04.801Z</time>
      </trkpt>
      <trkpt lat="50.56066" lon="1.87878">
        <ele>119.68</ele>
        <time>2024-02-08T17:46:19.232Z</time>
      </trkpt>
      <trkpt lat="50.56157" lon="1.87891">
        <ele>118.57</ele>
        <time>2024-02-08T17:46:33.785Z</time>
      </trkpt>
      <trkpt lat="50.56213" lon="1.87898">
        <ele>117.58</ele>
        <time>2024-02-08T17:46:48.413Z</time>
      </trkpt>
      <trkpt lat="50.56254" lon="1.87906">
        <ele>117.17</ele>
        <time>2024-02-08T17:47:03.096Z</time>
      </trkpt>
      <trkpt lat="50.56361" lon="1.87927">
        <ele>117.4</ele>
        <time>2024-02-08T17:47:17.923Z</time>
      </trkpt>
      <trkpt lat="50.5637" lon="1.87927">
        <ele>117.07</ele>
        <time>2024-02-08T17:47:32.762Z</time>
      </trkpt>
    </trkseg>
  </trk>
</gpx>